WZZ83 LRTM-LHBP
Flight info
| Callsign | WZZ83 |
|---|---|
| Flight time | 0h 44m |
| Altitude | 34000 |
| Route | DOKUD DCT IXUBA DCT ELROM DCT DEGET DCT KEZAL |
| Aircraft | A321/M-SDE3FGHIRWY/LB1 |
Departure
| Time | 2026-05-06 16:01 |
|---|---|
| Airport | Târgu Mureş Transilvania International Airport (LRTM) |
Arrival
| Time | 2026-05-06 16:46 |
|---|---|
| Airport | Budapest Liszt Ferenc International Airport (LHBP) |
| Time | Latitude | Longitude | Altitude | Speed | Heading |
|---|---|---|---|---|---|
| 2026-05-06 15:17 | 46.46765 | 24.42221 | 980 ft | 0 kts | 280° |
| 2026-05-06 15:56 | 46.46771 | 24.42219 | 1009 ft | 1 kts | 341° |
| 2026-05-06 15:56 | 46.46787 | 24.42230 | 972 ft | 4 kts | 24° |
| 2026-05-06 15:56 | 46.46823 | 24.42271 | 983 ft | 8 kts | 55° |
| 2026-05-06 15:56 | 46.46849 | 24.42369 | 974 ft | 12 kts | 72° |
| 2026-05-06 15:57 | 46.46871 | 24.42491 | 977 ft | 13 kts | 75° |
| 2026-05-06 15:57 | 46.46911 | 24.42531 | 980 ft | 6 kts | 333° |
| 2026-05-06 15:57 | 46.46958 | 24.42509 | 975 ft | 8 kts | 342° |
| 2026-05-06 15:57 | 46.47007 | 24.42483 | 975 ft | 5 kts | 329° |
| 2026-05-06 15:58 | 46.47009 | 24.42461 | 981 ft | 2 kts | 260° |
| 2026-05-06 15:58 | 46.47008 | 24.42460 | 981 ft | 0 kts | 256° |
| 2026-05-06 15:59 | 46.47008 | 24.42459 | 981 ft | 0 kts | 256° |
| 2026-05-06 15:59 | 46.47008 | 24.42453 | 973 ft | 1 kts | 265° |
| 2026-05-06 16:00 | 46.47008 | 24.42443 | 973 ft | 1 kts | 268° |
| 2026-05-06 16:00 | 46.47006 | 24.42430 | 980 ft | 2 kts | 253° |
| 2026-05-06 16:00 | 46.47005 | 24.42428 | 980 ft | 0 kts | 253° |
| 2026-05-06 16:00 | 46.46967 | 24.42236 | 976 ft | 57 kts | 254° |
| 2026-05-06 16:01 | 46.46795 | 24.41353 | 974 ft | 123 kts | 254° |
| 2026-05-06 16:01 | 46.46521 | 24.39942 | 1177 ft | 156 kts | 254° |
| 2026-05-06 16:01 | 46.46220 | 24.38480 | 1970 ft | 148 kts | 251° |
| 2026-05-06 16:01 | 46.45920 | 24.37047 | 2652 ft | 150 kts | 251° |
| 2026-05-06 16:02 | 46.45637 | 24.35593 | 3134 ft | 152 kts | 252° |
| 2026-05-06 16:02 | 46.45331 | 24.34010 | 3319 ft | 174 kts | 253° |
| 2026-05-06 16:02 | 46.44979 | 24.32209 | 3462 ft | 197 kts | 253° |
| 2026-05-06 16:02 | 46.44636 | 24.30172 | 3636 ft | 220 kts | 264° |
| 2026-05-06 16:03 | 46.45053 | 24.27948 | 3763 ft | 248 kts | 304° |
| 2026-05-06 16:03 | 46.46471 | 24.26460 | 4147 ft | 261 kts | 343° |
| 2026-05-06 16:03 | 46.48310 | 24.26182 | 4578 ft | 275 kts | 356° |
| 2026-05-06 16:03 | 46.50191 | 24.25563 | 5172 ft | 281 kts | 336° |
| 2026-05-06 16:04 | 46.51932 | 24.24237 | 5881 ft | 284 kts | 326° |
| 2026-05-06 16:04 | 46.53567 | 24.22623 | 6599 ft | 286 kts | 322° |
| 2026-05-06 16:04 | 46.55174 | 24.20908 | 7308 ft | 288 kts | 322° |
| 2026-05-06 16:04 | 46.56787 | 24.19184 | 8019 ft | 289 kts | 322° |
| 2026-05-06 16:05 | 46.58429 | 24.17469 | 8725 ft | 291 kts | 323° |
| 2026-05-06 16:05 | 46.60092 | 24.15779 | 9425 ft | 293 kts | 323° |
| 2026-05-06 16:05 | 46.61781 | 24.14099 | 10096 ft | 296 kts | 324° |
| 2026-05-06 16:05 | 46.63539 | 24.12372 | 10303 ft | 316 kts | 324° |
| 2026-05-06 16:06 | 46.65427 | 24.10524 | 10429 ft | 337 kts | 324° |
| 2026-05-06 16:06 | 46.67437 | 24.08560 | 10554 ft | 358 kts | 324° |
| 2026-05-06 16:06 | 46.69584 | 24.06463 | 10678 ft | 376 kts | 324° |
| 2026-05-06 16:06 | 46.71812 | 24.04289 | 10806 ft | 394 kts | 324° |
| 2026-05-06 16:07 | 46.74030 | 24.01872 | 11175 ft | 401 kts | 316° |
| 2026-05-06 16:07 | 46.75916 | 23.98889 | 11707 ft | 403 kts | 305° |
| 2026-05-06 16:07 | 46.77391 | 23.95405 | 12250 ft | 405 kts | 294° |
| 2026-05-06 16:07 | 46.78382 | 23.91559 | 12829 ft | 406 kts | 283° |
| 2026-05-06 16:08 | 46.78935 | 23.87507 | 13402 ft | 409 kts | 278° |
| 2026-05-06 16:08 | 46.79439 | 23.83416 | 13961 ft | 412 kts | 278° |
| 2026-05-06 16:08 | 46.79827 | 23.79252 | 14473 ft | 414 kts | 272° |
| 2026-05-06 16:08 | 46.79759 | 23.75055 | 14976 ft | 416 kts | 263° |
| 2026-05-06 16:09 | 46.79441 | 23.70858 | 15476 ft | 418 kts | 263° |
| 2026-05-06 16:09 | 46.79119 | 23.66628 | 15971 ft | 420 kts | 263° |
| 2026-05-06 16:09 | 46.78797 | 23.62375 | 16444 ft | 423 kts | 263° |
| 2026-05-06 16:09 | 46.78474 | 23.58096 | 16928 ft | 425 kts | 263° |
| 2026-05-06 16:10 | 46.78149 | 23.53784 | 17397 ft | 428 kts | 263° |
| 2026-05-06 16:10 | 46.77821 | 23.49464 | 17876 ft | 430 kts | 263° |
| 2026-05-06 16:10 | 46.77488 | 23.45113 | 18308 ft | 433 kts | 263° |
| 2026-05-06 16:10 | 46.77151 | 23.40743 | 18700 ft | 435 kts | 263° |
| 2026-05-06 16:11 | 46.76830 | 23.36609 | 19073 ft | 437 kts | 263° |
| 2026-05-06 16:11 | 46.76484 | 23.32190 | 19465 ft | 439 kts | 263° |
| 2026-05-06 16:11 | 46.76139 | 23.27759 | 19860 ft | 441 kts | 263° |
| 2026-05-06 16:11 | 46.75791 | 23.23288 | 20250 ft | 444 kts | 263° |
| 2026-05-06 16:12 | 46.75440 | 23.18816 | 20649 ft | 446 kts | 263° |
| 2026-05-06 16:12 | 46.75086 | 23.14318 | 21026 ft | 448 kts | 263° |
| 2026-05-06 16:12 | 46.74726 | 23.09792 | 21390 ft | 450 kts | 263° |
| 2026-05-06 16:12 | 46.74360 | 23.05251 | 21752 ft | 452 kts | 263° |
| 2026-05-06 16:13 | 46.73943 | 23.00687 | 22107 ft | 455 kts | 262° |
| 2026-05-06 16:13 | 46.73415 | 22.96144 | 22480 ft | 456 kts | 260° |
| 2026-05-06 16:13 | 46.72801 | 22.91588 | 22846 ft | 459 kts | 259° |
| 2026-05-06 16:13 | 46.72139 | 22.87030 | 23201 ft | 461 kts | 258° |
| 2026-05-06 16:14 | 46.71466 | 22.82457 | 23537 ft | 463 kts | 258° |
| 2026-05-06 16:14 | 46.70802 | 22.77860 | 23877 ft | 463 kts | 259° |
| 2026-05-06 16:14 | 46.70160 | 22.73273 | 24314 ft | 461 kts | 259° |
| 2026-05-06 16:14 | 46.69538 | 22.68691 | 24740 ft | 460 kts | 259° |
| 2026-05-06 16:15 | 46.68928 | 22.64131 | 25166 ft | 458 kts | 259° |
| 2026-05-06 16:15 | 46.68320 | 22.59583 | 25595 ft | 457 kts | 259° |
| 2026-05-06 16:15 | 46.67708 | 22.55046 | 26026 ft | 456 kts | 259° |
| 2026-05-06 16:15 | 46.67091 | 22.50535 | 26458 ft | 454 kts | 259° |
| 2026-05-06 16:16 | 46.66462 | 22.45974 | 26897 ft | 452 kts | 259° |
| 2026-05-06 16:16 | 46.65844 | 22.41499 | 27341 ft | 450 kts | 259° |
| 2026-05-06 16:16 | 46.65227 | 22.37040 | 27777 ft | 449 kts | 259° |
| 2026-05-06 16:16 | 46.64608 | 22.32586 | 27936 ft | 448 kts | 259° |
| 2026-05-06 16:17 | 46.63990 | 22.28152 | 27962 ft | 447 kts | 259° |
| 2026-05-06 16:17 | 46.63370 | 22.23716 | 27955 ft | 447 kts | 259° |
| 2026-05-06 16:17 | 46.62751 | 22.19295 | 27954 ft | 446 kts | 259° |
| 2026-05-06 16:17 | 46.62131 | 22.14868 | 27953 ft | 447 kts | 259° |
| 2026-05-06 16:18 | 46.61719 | 22.11941 | 27952 ft | 446 kts | 259° |
| 2026-05-06 16:18 | 46.61096 | 22.07515 | 27952 ft | 446 kts | 259° |
| 2026-05-06 16:18 | 46.60474 | 22.03109 | 27947 ft | 446 kts | 259° |
| 2026-05-06 16:18 | 46.59847 | 21.98683 | 27947 ft | 446 kts | 259° |
| 2026-05-06 16:19 | 46.59220 | 21.94269 | 27946 ft | 446 kts | 259° |
| 2026-05-06 16:19 | 46.58596 | 21.89878 | 27945 ft | 446 kts | 259° |
| 2026-05-06 16:19 | 46.57965 | 21.85455 | 27949 ft | 445 kts | 259° |
| 2026-05-06 16:19 | 46.57331 | 21.81056 | 27946 ft | 445 kts | 259° |
| 2026-05-06 16:20 | 46.56692 | 21.76645 | 27942 ft | 445 kts | 259° |
| 2026-05-06 16:20 | 46.56055 | 21.72253 | 27942 ft | 445 kts | 259° |
| 2026-05-06 16:20 | 46.55417 | 21.67852 | 27946 ft | 445 kts | 259° |
| 2026-05-06 16:20 | 46.54779 | 21.63460 | 27945 ft | 445 kts | 259° |
| 2026-05-06 16:21 | 46.54130 | 21.59006 | 27938 ft | 444 kts | 259° |
| 2026-05-06 16:21 | 46.53494 | 21.54671 | 27937 ft | 444 kts | 259° |
| 2026-05-06 16:21 | 46.52849 | 21.50284 | 27937 ft | 444 kts | 259° |
| 2026-05-06 16:21 | 46.52197 | 21.45847 | 27936 ft | 445 kts | 259° |
| 2026-05-06 16:22 | 46.51549 | 21.41455 | 27933 ft | 445 kts | 259° |
| 2026-05-06 16:22 | 46.50939 | 21.37053 | 27942 ft | 444 kts | 263° |
| 2026-05-06 16:22 | 46.50797 | 21.32586 | 27942 ft | 444 kts | 274° |
| 2026-05-06 16:22 | 46.51246 | 21.28174 | 27938 ft | 444 kts | 284° |
| 2026-05-06 16:23 | 46.52273 | 21.23959 | 27939 ft | 445 kts | 295° |
| 2026-05-06 16:23 | 46.53850 | 21.20072 | 27931 ft | 447 kts | 305° |
| 2026-05-06 16:23 | 46.55889 | 21.16654 | 27931 ft | 449 kts | 312° |
| 2026-05-06 16:23 | 46.58038 | 21.13353 | 27934 ft | 449 kts | 311° |
| 2026-05-06 16:24 | 46.60183 | 21.10047 | 27929 ft | 449 kts | 311° |
| 2026-05-06 16:24 | 46.62319 | 21.06741 | 27915 ft | 449 kts | 311° |
| 2026-05-06 16:24 | 46.64459 | 21.03421 | 27915 ft | 449 kts | 311° |
| 2026-05-06 16:24 | 46.66594 | 21.00104 | 27918 ft | 450 kts | 311° |
| 2026-05-06 16:25 | 46.68729 | 20.96777 | 27936 ft | 450 kts | 311° |
| 2026-05-06 16:25 | 46.70860 | 20.93443 | 27932 ft | 450 kts | 311° |
| 2026-05-06 16:25 | 46.72994 | 20.90103 | 27916 ft | 450 kts | 311° |
| 2026-05-06 16:25 | 46.75126 | 20.86767 | 27917 ft | 450 kts | 311° |
| 2026-05-06 16:26 | 46.77264 | 20.83428 | 27924 ft | 450 kts | 311° |
| 2026-05-06 16:26 | 46.79424 | 20.80047 | 27921 ft | 450 kts | 311° |
| 2026-05-06 16:26 | 46.81566 | 20.76692 | 27921 ft | 450 kts | 311° |
| 2026-05-06 16:26 | 46.83698 | 20.73348 | 27918 ft | 451 kts | 311° |
| 2026-05-06 16:27 | 46.85830 | 20.70003 | 27916 ft | 451 kts | 311° |
| 2026-05-06 16:27 | 46.87970 | 20.66638 | 27912 ft | 451 kts | 311° |
| 2026-05-06 16:27 | 46.90101 | 20.63280 | 27913 ft | 451 kts | 311° |
| 2026-05-06 16:27 | 46.92233 | 20.59915 | 27907 ft | 451 kts | 311° |
| 2026-05-06 16:28 | 46.94365 | 20.56546 | 27903 ft | 451 kts | 311° |
| 2026-05-06 16:28 | 46.96500 | 20.53168 | 27902 ft | 451 kts | 311° |
| 2026-05-06 16:28 | 46.98624 | 20.49806 | 27900 ft | 451 kts | 311° |
| 2026-05-06 16:28 | 47.00759 | 20.46423 | 27900 ft | 452 kts | 311° |
| 2026-05-06 16:29 | 47.02891 | 20.43044 | 27895 ft | 452 kts | 311° |
| 2026-05-06 16:29 | 47.05022 | 20.39658 | 27897 ft | 452 kts | 310° |
| 2026-05-06 16:29 | 47.07145 | 20.36274 | 27895 ft | 452 kts | 310° |
| 2026-05-06 16:29 | 47.09278 | 20.32871 | 27893 ft | 452 kts | 310° |
| 2026-05-06 16:30 | 47.11409 | 20.29470 | 27893 ft | 452 kts | 310° |
| 2026-05-06 16:30 | 47.12815 | 20.27222 | 27890 ft | 452 kts | 310° |
| 2026-05-06 16:30 | 47.15659 | 20.22666 | 27897 ft | 452 kts | 310° |
| 2026-05-06 16:30 | 47.17790 | 20.19273 | 27890 ft | 453 kts | 311° |
| 2026-05-06 16:31 | 47.19934 | 20.15896 | 27122 ft | 454 kts | 311° |
| 2026-05-06 16:31 | 47.22127 | 20.12458 | 25747 ft | 466 kts | 311° |
| 2026-05-06 16:31 | 47.24366 | 20.08954 | 24538 ft | 473 kts | 311° |
| 2026-05-06 16:31 | 47.26627 | 20.05408 | 23655 ft | 474 kts | 311° |
| 2026-05-06 16:32 | 47.28864 | 20.01888 | 22832 ft | 470 kts | 311° |
| 2026-05-06 16:32 | 47.31092 | 19.98373 | 22016 ft | 466 kts | 311° |
| 2026-05-06 16:32 | 47.33292 | 19.94895 | 21209 ft | 462 kts | 311° |
| 2026-05-06 16:32 | 47.35355 | 19.91315 | 20410 ft | 456 kts | 302° |
| 2026-05-06 16:33 | 47.36868 | 19.87265 | 19661 ft | 448 kts | 290° |
| 2026-05-06 16:33 | 47.37775 | 19.82846 | 18918 ft | 441 kts | 278° |
| 2026-05-06 16:33 | 47.38045 | 19.78378 | 18194 ft | 434 kts | 267° |
| 2026-05-06 16:34 | 47.36934 | 19.69788 | 16588 ft | 423 kts | 253° |
| 2026-05-06 16:34 | 47.36418 | 19.65537 | 15838 ft | 421 kts | 264° |
| 2026-05-06 16:34 | 47.36563 | 19.61240 | 15122 ft | 420 kts | 277° |
| 2026-05-06 16:34 | 47.37377 | 19.57118 | 14433 ft | 420 kts | 290° |
| 2026-05-06 16:35 | 47.38820 | 19.53363 | 13755 ft | 421 kts | 303° |
| 2026-05-06 16:35 | 47.40740 | 19.50111 | 13272 ft | 416 kts | 310° |
| 2026-05-06 16:35 | 47.42673 | 19.47037 | 13135 ft | 400 kts | 310° |
| 2026-05-06 16:35 | 47.44519 | 19.44076 | 13000 ft | 384 kts | 309° |
| 2026-05-06 16:36 | 47.46284 | 19.41224 | 12883 ft | 369 kts | 309° |
| 2026-05-06 16:36 | 47.47978 | 19.38480 | 12741 ft | 354 kts | 309° |
| 2026-05-06 16:36 | 47.49588 | 19.35878 | 12606 ft | 332 kts | 308° |
| 2026-05-06 16:36 | 47.51100 | 19.33433 | 12249 ft | 314 kts | 308° |
| 2026-05-06 16:37 | 47.52552 | 19.31080 | 11572 ft | 307 kts | 308° |
| 2026-05-06 16:37 | 47.53997 | 19.28733 | 11053 ft | 307 kts | 308° |
| 2026-05-06 16:37 | 47.55428 | 19.26412 | 10716 ft | 305 kts | 308° |
| 2026-05-06 16:37 | 47.56854 | 19.24099 | 10364 ft | 303 kts | 308° |
| 2026-05-06 16:38 | 47.58272 | 19.21801 | 10021 ft | 301 kts | 308° |
| 2026-05-06 16:38 | 47.59677 | 19.19519 | 9659 ft | 300 kts | 308° |
| 2026-05-06 16:38 | 47.61077 | 19.17241 | 9279 ft | 298 kts | 308° |
| 2026-05-06 16:38 | 47.62465 | 19.14978 | 8904 ft | 296 kts | 308° |
| 2026-05-06 16:39 | 47.63858 | 19.12705 | 8365 ft | 292 kts | 308° |
| 2026-05-06 16:39 | 47.65167 | 19.10506 | 8143 ft | 274 kts | 300° |
| 2026-05-06 16:39 | 47.65896 | 19.08031 | 7737 ft | 257 kts | 274° |
| 2026-05-06 16:39 | 47.65821 | 19.05475 | 7225 ft | 245 kts | 249° |
| 2026-05-06 16:40 | 47.65045 | 19.03275 | 6736 ft | 241 kts | 226° |
| 2026-05-06 16:40 | 47.63846 | 19.01605 | 6448 ft | 235 kts | 220° |
| 2026-05-06 16:40 | 47.62602 | 19.00014 | 5887 ft | 238 kts | 213° |
| 2026-05-06 16:40 | 47.61095 | 18.99132 | 5292 ft | 234 kts | 189° |
| 2026-05-06 16:41 | 47.59490 | 18.99325 | 4683 ft | 235 kts | 164° |
| 2026-05-06 16:41 | 47.58104 | 19.00570 | 4251 ft | 233 kts | 139° |
| 2026-05-06 16:41 | 47.57031 | 19.02298 | 3921 ft | 223 kts | 136° |
| 2026-05-06 16:41 | 47.56001 | 19.03985 | 3651 ft | 217 kts | 137° |
| 2026-05-06 16:42 | 47.55029 | 19.05576 | 3375 ft | 200 kts | 137° |
| 2026-05-06 16:42 | 47.54126 | 19.07047 | 3103 ft | 186 kts | 137° |
| 2026-05-06 16:42 | 47.53278 | 19.08425 | 2871 ft | 178 kts | 138° |
| 2026-05-06 16:42 | 47.52457 | 19.09760 | 2649 ft | 174 kts | 138° |
| 2026-05-06 16:43 | 47.51649 | 19.11072 | 2424 ft | 171 kts | 138° |
| 2026-05-06 16:43 | 47.50865 | 19.12347 | 2215 ft | 162 kts | 139° |
| 2026-05-06 16:43 | 47.50129 | 19.13547 | 1990 ft | 155 kts | 139° |
| 2026-05-06 16:43 | 47.49413 | 19.14707 | 1787 ft | 151 kts | 138° |
| 2026-05-06 16:44 | 47.48703 | 19.15858 | 1588 ft | 151 kts | 138° |
| 2026-05-06 16:44 | 47.47987 | 19.17009 | 1376 ft | 153 kts | 139° |
| 2026-05-06 16:44 | 47.47269 | 19.18180 | 1175 ft | 155 kts | 135° |
| 2026-05-06 16:44 | 47.46546 | 19.19366 | 957 ft | 156 kts | 134° |
| 2026-05-06 16:45 | 47.45816 | 19.20558 | 785 ft | 157 kts | 135° |
| 2026-05-06 16:45 | 47.45082 | 19.21750 | 572 ft | 154 kts | 136° |
| 2026-05-06 16:45 | 47.44394 | 19.22853 | 454 ft | 135 kts | 137° |
| 2026-05-06 16:45 | 47.43854 | 19.23711 | 456 ft | 90 kts | 131° |
| 2026-05-06 16:46 | 47.43547 | 19.24205 | 452 ft | 40 kts | 134° |
| 2026-05-06 16:46 | 47.43440 | 19.24393 | 452 ft | 18 kts | 132° |
| 2026-05-06 16:46 | 47.43353 | 19.24530 | 452 ft | 19 kts | 134° |
| 2026-05-06 16:46 | 47.43268 | 19.24669 | 455 ft | 18 kts | 132° |
| 2026-05-06 16:47 | 47.43183 | 19.24805 | 456 ft | 20 kts | 133° |
| 2026-05-06 16:47 | 47.43084 | 19.24967 | 457 ft | 21 kts | 123° |
| 2026-05-06 16:47 | 47.43117 | 19.25079 | 457 ft | 10 kts | 36° |
| 2026-05-06 16:47 | 47.43170 | 19.25145 | 457 ft | 11 kts | 45° |
| 2026-05-06 16:48 | 47.43238 | 19.25244 | 457 ft | 16 kts | 43° |
| 2026-05-06 16:48 | 47.43322 | 19.25359 | 457 ft | 17 kts | 43° |
| 2026-05-06 16:48 | 47.43409 | 19.25476 | 457 ft | 14 kts | 42° |
| 2026-05-06 16:48 | 47.43472 | 19.25561 | 457 ft | 12 kts | 42° |
| 2026-05-06 16:49 | 47.43529 | 19.25637 | 457 ft | 10 kts | 42° |
| 2026-05-06 16:49 | 47.43581 | 19.25706 | 456 ft | 10 kts | 42° |
| 2026-05-06 16:49 | 47.43633 | 19.25776 | 457 ft | 11 kts | 42° |
| 2026-05-06 16:49 | 47.43693 | 19.25856 | 457 ft | 11 kts | 42° |
| 2026-05-06 16:50 | 47.43736 | 19.25947 | 457 ft | 12 kts | 83° |
| 2026-05-06 16:50 | 47.43688 | 19.26051 | 457 ft | 12 kts | 121° |
| 2026-05-06 16:50 | 47.43676 | 19.26171 | 457 ft | 12 kts | 87° |
| 2026-05-06 16:50 | 47.43679 | 19.26250 | 457 ft | 11 kts | 87° |
| 2026-05-06 16:51 | 47.43665 | 19.26358 | 457 ft | 10 kts | 121° |
| 2026-05-06 16:51 | 47.43620 | 19.26431 | 458 ft | 9 kts | 137° |
| 2026-05-06 16:51 | 47.43580 | 19.26489 | 458 ft | 7 kts | 134° |
| 2026-05-06 16:51 | 47.43548 | 19.26538 | 458 ft | 6 kts | 132° |
| 2026-05-06 16:52 | 47.43514 | 19.26594 | 458 ft | 9 kts | 134° |
| 2026-05-06 16:52 | 47.43467 | 19.26593 | 457 ft | 5 kts | 226° |
| 2026-05-06 16:52 | 47.43460 | 19.26585 | 457 ft | 2 kts | 218° |
| 2026-05-06 16:52 | 47.43452 | 19.26575 | 457 ft | 0 kts | 221° |